Huntsdale, Missouri
Current Conditions -  °F | °C
As of 9:54 AM on Monday 24 Nov 2014 (Local Time) from KCOU Reporting Station
Overcast Overcast  
Wind Chill: 24°   Ceiling: 3000
Heat Index: 36°   Visibility: 10mi
Dew Point: 27°   Wind: 23mph
Humidity: 70%   Direction: 260°W
Pressure: 29.67"   Gusts: 31mph
Location:  38.895°N, 92.3958°W
Report Text: KCOU 241554Z 26020G27KT 10SM OVC030 02/M03 A2967 RMK AO2 PK WND 25027/1553 SLP050 T00221028
Loading
Personal Weather Stations






























Interactive Weather Map New forecast layout! Learn more

10-Day Weather Forecast

Advertisements
Track Severe Weather on mobile